sensor_id;sensor_type;location;lat;lon;timestamp;P1;durP1;ratioP1;P2;durP2;ratioP2
5285;SDS011;2665;53.112;7.358;2023-06-24T00:00:05;8.63;;;7.10;;
5285;SDS011;2665;53.112;7.358;2023-06-24T00:02:38;9.27;;;5.83;;
5285;SDS011;2665;53.112;7.358;2023-06-24T00:05:06;8.20;;;6.23;;
5285;SDS011;2665;53.112;7.358;2023-06-24T00:07:33;9.83;;;7.37;;
5285;SDS011;2665;53.112;7.358;2023-06-24T00:10:08;9.63;;;7.37;;
5285;SDS011;2665;53.112;7.358;2023-06-24T00:12:34;9.03;;;7.57;;
5285;SDS011;2665;53.112;7.358;2023-06-24T00:15:01;11.23;;;7.33;;
5285;SDS011;2665;53.112;7.358;2023-06-24T00:17:27;8.20;;;7.30;;
5285;SDS011;2665;53.112;7.358;2023-06-24T00:19:53;10.10;;;7.67;;
5285;SDS011;2665;53.112;7.358;2023-06-24T00:22:20;10.70;;;7.73;;
5285;SDS011;2665;53.112;7.358;2023-06-24T00:24:47;12.87;;;7.43;;
5285;SDS011;2665;53.112;7.358;2023-06-24T00:27:13;7.57;;;5.93;;
5285;SDS011;2665;53.112;7.358;2023-06-24T00:29:39;8.67;;;6.83;;
5285;SDS011;2665;53.112;7.358;2023-06-24T00:32:05;10.33;;;7.13;;
5285;SDS011;2665;53.112;7.358;2023-06-24T00:34:31;8.13;;;6.20;;
5285;SDS011;2665;53.112;7.358;2023-06-24T00:36:57;10.50;;;6.60;;
5285;SDS011;2665;53.112;7.358;2023-06-24T00:39:23;7.30;;;6.37;;
5285;SDS011;2665;53.112;7.358;2023-06-24T00:41:49;8.83;;;6.37;;
5285;SDS011;2665;53.112;7.358;2023-06-24T00:44:15;8.70;;;6.43;;
5285;SDS011;2665;53.112;7.358;2023-06-24T00:46:41;12.27;;;5.90;;
5285;SDS011;2665;53.112;7.358;2023-06-24T00:49:07;8.13;;;6.50;;
5285;SDS011;2665;53.112;7.358;2023-06-24T00:51:33;11.23;;;5.87;;
5285;SDS011;2665;53.112;7.358;2023-06-24T00:54:01;8.30;;;5.97;;
5285;SDS011;2665;53.112;7.358;2023-06-24T00:56:29;7.77;;;5.63;;
5285;SDS011;2665;53.112;7.358;2023-06-24T00:59:00;7.23;;;5.53;;
5285;SDS011;2665;53.112;7.358;2023-06-24T01:01:27;7.13;;;5.43;;
5285;SDS011;2665;53.112;7.358;2023-06-24T01:03:56;9.10;;;5.50;;
5285;SDS011;2665;53.112;7.358;2023-06-24T01:06:23;7.90;;;5.60;;
5285;SDS011;2665;53.112;7.358;2023-06-24T01:08:49;9.37;;;6.37;;
5285;SDS011;2665;53.112;7.358;2023-06-24T01:11:16;7.60;;;5.27;;
5285;SDS011;2665;53.112;7.358;2023-06-24T01:13:42;6.70;;;5.90;;
5285;SDS011;2665;53.112;7.358;2023-06-24T01:16:10;6.50;;;4.83;;
5285;SDS011;2665;53.112;7.358;2023-06-24T01:18:43;8.60;;;6.00;;
5285;SDS011;2665;53.112;7.358;2023-06-24T01:21:24;11.30;;;5.80;;
5285;SDS011;2665;53.112;7.358;2023-06-24T01:27:08;7.63;;;5.40;;
5285;SDS011;2665;53.112;7.358;2023-06-24T01:29:30;7.40;;;5.43;;
5285;SDS011;2665;53.112;7.358;2023-06-24T01:32:06;6.97;;;5.60;;
5285;SDS011;2665;53.112;7.358;2023-06-24T01:34:33;13.53;;;6.10;;
5285;SDS011;2665;53.112;7.358;2023-06-24T01:37:03;9.53;;;5.40;;
5285;SDS011;2665;53.112;7.358;2023-06-24T01:39:33;8.20;;;6.10;;
5285;SDS011;2665;53.112;7.358;2023-06-24T01:42:03;7.03;;;5.43;;
5285;SDS011;2665;53.112;7.358;2023-06-24T01:44:32;8.33;;;5.70;;
5285;SDS011;2665;53.112;7.358;2023-06-24T01:46:59;11.40;;;6.50;;
5285;SDS011;2665;53.112;7.358;2023-06-24T01:49:27;13.30;;;5.77;;
5285;SDS011;2665;53.112;7.358;2023-06-24T01:51:54;6.70;;;5.53;;
5285;SDS011;2665;53.112;7.358;2023-06-24T01:54:21;9.97;;;5.17;;
5285;SDS011;2665;53.112;7.358;2023-06-24T01:56:48;9.27;;;5.73;;
5285;SDS011;2665;53.112;7.358;2023-06-24T01:59:16;8.87;;;5.67;;
5285;SDS011;2665;53.112;7.358;2023-06-24T02:01:43;9.63;;;5.67;;
5285;SDS011;2665;53.112;7.358;2023-06-24T02:04:10;8.73;;;5.77;;
5285;SDS011;2665;53.112;7.358;2023-06-24T02:06:37;7.13;;;5.60;;
5285;SDS011;2665;53.112;7.358;2023-06-24T02:09:05;9.73;;;7.27;;
5285;SDS011;2665;53.112;7.358;2023-06-24T02:11:31;8.67;;;6.00;;
5285;SDS011;2665;53.112;7.358;2023-06-24T02:13:59;7.07;;;5.43;;
5285;SDS011;2665;53.112;7.358;2023-06-24T02:16:26;7.23;;;5.40;;
5285;SDS011;2665;53.112;7.358;2023-06-24T02:18:53;9.20;;;5.93;;
5285;SDS011;2665;53.112;7.358;2023-06-24T02:21:20;8.27;;;5.77;;
5285;SDS011;2665;53.112;7.358;2023-06-24T02:23:46;10.07;;;5.70;;
5285;SDS011;2665;53.112;7.358;2023-06-24T02:26:13;8.67;;;5.37;;
5285;SDS011;2665;53.112;7.358;2023-06-24T02:28:39;8.77;;;5.07;;
5285;SDS011;2665;53.112;7.358;2023-06-24T02:31:06;11.30;;;5.50;;
5285;SDS011;2665;53.112;7.358;2023-06-24T02:33:34;9.80;;;5.80;;
5285;SDS011;2665;53.112;7.358;2023-06-24T02:36:00;8.33;;;5.87;;
5285;SDS011;2665;53.112;7.358;2023-06-24T02:38:26;9.10;;;5.60;;
5285;SDS011;2665;53.112;7.358;2023-06-24T02:40:52;9.40;;;5.60;;
5285;SDS011;2665;53.112;7.358;2023-06-24T02:43:18;6.90;;;5.17;;
5285;SDS011;2665;53.112;7.358;2023-06-24T02:45:45;10.83;;;5.83;;
5285;SDS011;2665;53.112;7.358;2023-06-24T02:48:12;9.37;;;5.20;;
5285;SDS011;2665;53.112;7.358;2023-06-24T02:50:38;7.30;;;6.07;;
5285;SDS011;2665;53.112;7.358;2023-06-24T02:53:06;6.60;;;4.97;;
5285;SDS011;2665;53.112;7.358;2023-06-24T02:55:32;7.47;;;5.27;;
5285;SDS011;2665;53.112;7.358;2023-06-24T02:57:59;8.83;;;5.80;;
5285;SDS011;2665;53.112;7.358;2023-06-24T03:00:26;7.50;;;5.73;;
5285;SDS011;2665;53.112;7.358;2023-06-24T03:02:52;7.27;;;5.33;;
5285;SDS011;2665;53.112;7.358;2023-06-24T03:05:19;7.27;;;5.20;;
5285;SDS011;2665;53.112;7.358;2023-06-24T03:07:46;10.50;;;5.90;;
5285;SDS011;2665;53.112;7.358;2023-06-24T03:10:12;6.00;;;4.87;;
5285;SDS011;2665;53.112;7.358;2023-06-24T03:12:40;8.33;;;6.07;;
5285;SDS011;2665;53.112;7.358;2023-06-24T03:15:06;7.30;;;5.10;;
5285;SDS011;2665;53.112;7.358;2023-06-24T03:17:34;8.67;;;5.70;;
5285;SDS011;2665;53.112;7.358;2023-06-24T03:20:00;8.33;;;5.97;;
5285;SDS011;2665;53.112;7.358;2023-06-24T03:22:26;7.13;;;5.80;;
5285;SDS011;2665;53.112;7.358;2023-06-24T03:24:52;14.00;;;6.20;;
5285;SDS011;2665;53.112;7.358;2023-06-24T03:27:18;14.40;;;5.53;;
5285;SDS011;2665;53.112;7.358;2023-06-24T03:29:44;7.30;;;5.63;;
5285;SDS011;2665;53.112;7.358;2023-06-24T03:32:10;10.03;;;7.60;;
5285;SDS011;2665;53.112;7.358;2023-06-24T03:34:36;12.43;;;6.70;;
5285;SDS011;2665;53.112;7.358;2023-06-24T03:37:02;8.23;;;5.80;;
5285;SDS011;2665;53.112;7.358;2023-06-24T03:39:29;13.00;;;6.77;;
5285;SDS011;2665;53.112;7.358;2023-06-24T03:41:55;9.17;;;6.70;;
5285;SDS011;2665;53.112;7.358;2023-06-24T03:44:21;11.60;;;7.80;;
5285;SDS011;2665;53.112;7.358;2023-06-24T03:46:47;11.70;;;6.70;;
5285;SDS011;2665;53.112;7.358;2023-06-24T03:49:13;11.87;;;7.30;;
5285;SDS011;2665;53.112;7.358;2023-06-24T03:51:39;9.17;;;6.87;;
5285;SDS011;2665;53.112;7.358;2023-06-24T03:54:05;12.40;;;7.37;;
5285;SDS011;2665;53.112;7.358;2023-06-24T03:56:31;11.37;;;6.63;;
5285;SDS011;2665;53.112;7.358;2023-06-24T03:58:57;10.90;;;6.70;;
5285;SDS011;2665;53.112;7.358;2023-06-24T04:01:23;9.43;;;6.80;;
5285;SDS011;2665;53.112;7.358;2023-06-24T04:03:49;9.20;;;6.63;;
5285;SDS011;2665;53.112;7.358;2023-06-24T04:06:15;11.13;;;7.07;;
5285;SDS011;2665;53.112;7.358;2023-06-24T04:08:41;9.40;;;6.53;;
5285;SDS011;2665;53.112;7.358;2023-06-24T04:11:13;8.33;;;6.20;;
5285;SDS011;2665;53.112;7.358;2023-06-24T04:13:39;9.10;;;6.33;;
5285;SDS011;2665;53.112;7.358;2023-06-24T04:16:05;9.83;;;5.63;;
5285;SDS011;2665;53.112;7.358;2023-06-24T04:18:31;9.73;;;6.40;;
5285;SDS011;2665;53.112;7.358;2023-06-24T04:20:57;11.90;;;6.97;;
5285;SDS011;2665;53.112;7.358;2023-06-24T04:23:23;12.30;;;6.07;;
5285;SDS011;2665;53.112;7.358;2023-06-24T04:25:49;8.50;;;6.13;;
5285;SDS011;2665;53.112;7.358;2023-06-24T04:28:16;11.20;;;5.87;;
5285;SDS011;2665;53.112;7.358;2023-06-24T04:30:42;8.33;;;6.20;;
5285;SDS011;2665;53.112;7.358;2023-06-24T04:33:08;10.40;;;5.53;;
5285;SDS011;2665;53.112;7.358;2023-06-24T04:35:34;9.10;;;5.77;;
5285;SDS011;2665;53.112;7.358;2023-06-24T04:38:00;10.17;;;6.43;;
5285;SDS011;2665;53.112;7.358;2023-06-24T04:40:26;9.40;;;5.80;;
5285;SDS011;2665;53.112;7.358;2023-06-24T04:42:52;14.93;;;6.60;;
5285;SDS011;2665;53.112;7.358;2023-06-24T04:45:18;8.93;;;5.27;;
5285;SDS011;2665;53.112;7.358;2023-06-24T04:47:44;8.33;;;5.37;;
5285;SDS011;2665;53.112;7.358;2023-06-24T04:50:10;7.80;;;5.57;;
5285;SDS011;2665;53.112;7.358;2023-06-24T04:52:36;8.57;;;6.13;;
5285;SDS011;2665;53.112;7.358;2023-06-24T04:55:03;7.00;;;5.30;;
5285;SDS011;2665;53.112;7.358;2023-06-24T04:57:29;8.87;;;6.17;;
5285;SDS011;2665;53.112;7.358;2023-06-24T04:59:56;10.23;;;5.87;;
5285;SDS011;2665;53.112;7.358;2023-06-24T05:02:23;6.03;;;5.30;;
5285;SDS011;2665;53.112;7.358;2023-06-24T05:04:49;7.83;;;5.20;;
5285;SDS011;2665;53.112;7.358;2023-06-24T05:07:15;9.07;;;6.30;;
5285;SDS011;2665;53.112;7.358;2023-06-24T05:09:41;7.60;;;5.47;;
5285;SDS011;2665;53.112;7.358;2023-06-24T05:12:08;8.00;;;4.93;;
5285;SDS011;2665;53.112;7.358;2023-06-24T05:14:35;7.27;;;6.03;;
5285;SDS011;2665;53.112;7.358;2023-06-24T05:17:02;7.20;;;5.67;;
5285;SDS011;2665;53.112;7.358;2023-06-24T05:19:28;7.60;;;5.53;;
5285;SDS011;2665;53.112;7.358;2023-06-24T05:21:54;8.77;;;5.87;;
5285;SDS011;2665;53.112;7.358;2023-06-24T05:24:20;8.80;;;5.20;;
5285;SDS011;2665;53.112;7.358;2023-06-24T05:26:49;7.67;;;5.27;;
5285;SDS011;2665;53.112;7.358;2023-06-24T05:29:16;7.50;;;4.83;;
5285;SDS011;2665;53.112;7.358;2023-06-24T05:31:42;8.30;;;5.30;;
5285;SDS011;2665;53.112;7.358;2023-06-24T05:34:08;8.53;;;5.17;;
5285;SDS011;2665;53.112;7.358;2023-06-24T05:36:34;7.30;;;5.23;;
5285;SDS011;2665;53.112;7.358;2023-06-24T05:39:00;8.20;;;4.73;;
5285;SDS011;2665;53.112;7.358;2023-06-24T05:41:26;14.13;;;5.53;;
5285;SDS011;2665;53.112;7.358;2023-06-24T05:44:07;6.53;;;4.90;;
5285;SDS011;2665;53.112;7.358;2023-06-24T05:46:34;7.60;;;4.70;;
5285;SDS011;2665;53.112;7.358;2023-06-24T05:49:01;6.27;;;4.20;;
5285;SDS011;2665;53.112;7.358;2023-06-24T05:51:27;5.43;;;4.17;;
5285;SDS011;2665;53.112;7.358;2023-06-24T05:53:53;6.33;;;4.30;;
5285;SDS011;2665;53.112;7.358;2023-06-24T05:56:20;7.43;;;4.10;;
5285;SDS011;2665;53.112;7.358;2023-06-24T05:58:47;7.07;;;4.40;;
5285;SDS011;2665;53.112;7.358;2023-06-24T06:01:13;8.13;;;4.50;;
5285;SDS011;2665;53.112;7.358;2023-06-24T06:03:39;7.90;;;4.10;;
5285;SDS011;2665;53.112;7.358;2023-06-24T06:06:05;5.13;;;4.20;;
5285;SDS011;2665;53.112;7.358;2023-06-24T06:08:32;11.33;;;4.40;;
5285;SDS011;2665;53.112;7.358;2023-06-24T06:10:58;4.53;;;3.60;;
5285;SDS011;2665;53.112;7.358;2023-06-24T06:13:25;5.10;;;3.87;;
5285;SDS011;2665;53.112;7.358;2023-06-24T06:15:51;6.83;;;5.17;;
5285;SDS011;2665;53.112;7.358;2023-06-24T06:18:17;6.90;;;4.93;;
5285;SDS011;2665;53.112;7.358;2023-06-24T06:20:43;6.20;;;4.17;;
5285;SDS011;2665;53.112;7.358;2023-06-24T06:23:09;10.10;;;5.10;;
5285;SDS011;2665;53.112;7.358;2023-06-24T06:25:35;10.37;;;4.73;;
5285;SDS011;2665;53.112;7.358;2023-06-24T06:28:03;6.13;;;5.23;;
5285;SDS011;2665;53.112;7.358;2023-06-24T06:30:29;5.70;;;4.33;;
5285;SDS011;2665;53.112;7.358;2023-06-24T06:32:55;6.90;;;4.93;;
5285;SDS011;2665;53.112;7.358;2023-06-24T06:35:21;6.73;;;5.43;;
5285;SDS011;2665;53.112;7.358;2023-06-24T06:37:47;11.23;;;5.27;;
5285;SDS011;2665;53.112;7.358;2023-06-24T06:40:17;7.80;;;5.37;;
5285;SDS011;2665;53.112;7.358;2023-06-24T06:42:43;10.67;;;5.60;;
5285;SDS011;2665;53.112;7.358;2023-06-24T06:45:09;10.27;;;5.87;;
5285;SDS011;2665;53.112;7.358;2023-06-24T06:47:36;5.97;;;5.07;;
5285;SDS011;2665;53.112;7.358;2023-06-24T06:50:02;8.60;;;5.33;;
5285;SDS011;2665;53.112;7.358;2023-06-24T06:52:28;12.23;;;5.00;;
5285;SDS011;2665;53.112;7.358;2023-06-24T06:54:54;9.43;;;5.23;;
5285;SDS011;2665;53.112;7.358;2023-06-24T06:57:20;5.07;;;4.57;;
5285;SDS011;2665;53.112;7.358;2023-06-24T06:59:46;5.67;;;4.00;;
5285;SDS011;2665;53.112;7.358;2023-06-24T07:02:14;7.23;;;4.53;;
5285;SDS011;2665;53.112;7.358;2023-06-24T07:04:40;6.63;;;4.37;;
5285;SDS011;2665;53.112;7.358;2023-06-24T07:07:06;5.93;;;3.87;;
5285;SDS011;2665;53.112;7.358;2023-06-24T07:09:32;6.13;;;4.20;;
5285;SDS011;2665;53.112;7.358;2023-06-24T07:11:58;7.70;;;4.07;;
5285;SDS011;2665;53.112;7.358;2023-06-24T07:14:24;5.40;;;3.80;;
5285;SDS011;2665;53.112;7.358;2023-06-24T07:16:50;5.80;;;3.87;;
5285;SDS011;2665;53.112;7.358;2023-06-24T07:19:17;9.97;;;4.50;;
5285;SDS011;2665;53.112;7.358;2023-06-24T07:21:43;4.40;;;3.70;;
5285;SDS011;2665;53.112;7.358;2023-06-24T07:24:09;7.03;;;4.03;;
5285;SDS011;2665;53.112;7.358;2023-06-24T07:26:35;6.50;;;4.30;;
5285;SDS011;2665;53.112;7.358;2023-06-24T07:29:01;6.77;;;4.27;;
5285;SDS011;2665;53.112;7.358;2023-06-24T07:31:27;5.90;;;4.37;;
5285;SDS011;2665;53.112;7.358;2023-06-24T07:33:53;5.47;;;3.83;;
5285;SDS011;2665;53.112;7.358;2023-06-24T07:36:19;7.53;;;4.00;;
5285;SDS011;2665;53.112;7.358;2023-06-24T07:38:45;4.83;;;3.60;;
5285;SDS011;2665;53.112;7.358;2023-06-24T07:41:11;5.27;;;4.40;;
5285;SDS011;2665;53.112;7.358;2023-06-24T07:43:37;6.03;;;3.73;;
5285;SDS011;2665;53.112;7.358;2023-06-24T07:46:04;5.80;;;4.27;;
5285;SDS011;2665;53.112;7.358;2023-06-24T07:48:30;6.43;;;4.40;;
5285;SDS011;2665;53.112;7.358;2023-06-24T07:50:56;6.10;;;4.30;;
5285;SDS011;2665;53.112;7.358;2023-06-24T07:53:22;5.50;;;4.43;;
5285;SDS011;2665;53.112;7.358;2023-06-24T07:55:48;5.10;;;4.07;;
5285;SDS011;2665;53.112;7.358;2023-06-24T07:58:14;5.30;;;4.23;;
5285;SDS011;2665;53.112;7.358;2023-06-24T08:00:40;6.50;;;4.60;;
5285;SDS011;2665;53.112;7.358;2023-06-24T08:03:06;4.80;;;3.47;;
5285;SDS011;2665;53.112;7.358;2023-06-24T08:05:32;8.47;;;4.10;;
5285;SDS011;2665;53.112;7.358;2023-06-24T08:07:58;7.93;;;4.13;;
5285;SDS011;2665;53.112;7.358;2023-06-24T08:10:24;8.17;;;4.60;;
5285;SDS011;2665;53.112;7.358;2023-06-24T08:12:50;8.43;;;4.60;;
5285;SDS011;2665;53.112;7.358;2023-06-24T08:15:16;5.33;;;3.90;;
5285;SDS011;2665;53.112;7.358;2023-06-24T08:17:43;4.90;;;3.47;;
5285;SDS011;2665;53.112;7.358;2023-06-24T08:20:09;6.17;;;4.50;;
5285;SDS011;2665;53.112;7.358;2023-06-24T08:22:35;8.73;;;4.93;;
5285;SDS011;2665;53.112;7.358;2023-06-24T08:25:01;7.97;;;4.00;;
5285;SDS011;2665;53.112;7.358;2023-06-24T08:27:27;4.20;;;3.67;;
5285;SDS011;2665;53.112;7.358;2023-06-24T08:29:53;6.53;;;4.00;;
5285;SDS011;2665;53.112;7.358;2023-06-24T08:32:19;5.37;;;4.03;;
5285;SDS011;2665;53.112;7.358;2023-06-24T08:34:45;6.63;;;4.30;;
5285;SDS011;2665;53.112;7.358;2023-06-24T08:37:11;5.03;;;3.90;;
5285;SDS011;2665;53.112;7.358;2023-06-24T08:39:37;6.73;;;3.90;;
5285;SDS011;2665;53.112;7.358;2023-06-24T08:42:04;7.33;;;3.80;;
5285;SDS011;2665;53.112;7.358;2023-06-24T08:44:30;4.73;;;4.23;;
5285;SDS011;2665;53.112;7.358;2023-06-24T08:46:56;6.00;;;4.70;;
5285;SDS011;2665;53.112;7.358;2023-06-24T08:51:56;5.00;;;4.03;;
5285;SDS011;2665;53.112;7.358;2023-06-24T08:54:23;5.57;;;4.03;;
5285;SDS011;2665;53.112;7.358;2023-06-24T08:56:50;6.60;;;4.80;;
5285;SDS011;2665;53.112;7.358;2023-06-24T08:59:16;6.50;;;4.30;;
5285;SDS011;2665;53.112;7.358;2023-06-24T09:01:44;7.33;;;4.80;;
5285;SDS011;2665;53.112;7.358;2023-06-24T09:04:10;6.53;;;4.23;;
5285;SDS011;2665;53.112;7.358;2023-06-24T09:06:37;5.27;;;3.80;;
5285;SDS011;2665;53.112;7.358;2023-06-24T09:09:03;5.53;;;4.47;;
5285;SDS011;2665;53.112;7.358;2023-06-24T09:11:29;6.47;;;4.23;;
5285;SDS011;2665;53.112;7.358;2023-06-24T09:13:57;7.27;;;4.33;;
5285;SDS011;2665;53.112;7.358;2023-06-24T09:16:24;5.10;;;3.80;;
5285;SDS011;2665;53.112;7.358;2023-06-24T09:18:51;4.90;;;3.73;;
5285;SDS011;2665;53.112;7.358;2023-06-24T09:21:21;7.30;;;4.60;;
5285;SDS011;2665;53.112;7.358;2023-06-24T09:23:53;7.90;;;4.23;;
5285;SDS011;2665;53.112;7.358;2023-06-24T09:26:22;5.70;;;4.33;;
5285;SDS011;2665;53.112;7.358;2023-06-24T09:28:49;6.57;;;3.80;;
5285;SDS011;2665;53.112;7.358;2023-06-24T09:31:15;5.60;;;4.10;;
5285;SDS011;2665;53.112;7.358;2023-06-24T09:33:40;6.80;;;4.03;;
5285;SDS011;2665;53.112;7.358;2023-06-24T09:36:06;5.53;;;4.10;;
5285;SDS011;2665;53.112;7.358;2023-06-24T09:38:36;6.10;;;3.83;;
5285;SDS011;2665;53.112;7.358;2023-06-24T09:41:03;4.90;;;3.80;;
5285;SDS011;2665;53.112;7.358;2023-06-24T09:43:36;7.77;;;4.57;;
5285;SDS011;2665;53.112;7.358;2023-06-24T09:46:04;5.33;;;3.93;;
5285;SDS011;2665;53.112;7.358;2023-06-24T09:48:30;5.20;;;3.87;;
5285;SDS011;2665;53.112;7.358;2023-06-24T09:50:59;8.03;;;4.27;;
5285;SDS011;2665;53.112;7.358;2023-06-24T09:53:28;4.90;;;3.37;;
5285;SDS011;2665;53.112;7.358;2023-06-24T09:55:59;5.53;;;3.90;;
5285;SDS011;2665;53.112;7.358;2023-06-24T09:58:28;9.40;;;4.90;;
5285;SDS011;2665;53.112;7.358;2023-06-24T10:01:03;7.40;;;4.30;;
5285;SDS011;2665;53.112;7.358;2023-06-24T10:03:32;6.20;;;4.73;;
5285;SDS011;2665;53.112;7.358;2023-06-24T10:06:00;7.07;;;4.00;;
5285;SDS011;2665;53.112;7.358;2023-06-24T10:08:27;4.77;;;3.60;;
5285;SDS011;2665;53.112;7.358;2023-06-24T10:10:53;7.80;;;3.20;;
5285;SDS011;2665;53.112;7.358;2023-06-24T10:13:19;6.67;;;3.20;;
5285;SDS011;2665;53.112;7.358;2023-06-24T10:15:45;10.70;;;4.07;;
5285;SDS011;2665;53.112;7.358;2023-06-24T10:21:14;4.60;;;3.33;;
5285;SDS011;2665;53.112;7.358;2023-06-24T10:23:42;6.20;;;3.87;;
5285;SDS011;2665;53.112;7.358;2023-06-24T10:26:26;5.30;;;3.40;;
5285;SDS011;2665;53.112;7.358;2023-06-24T10:37:09;6.00;;;2.63;;
5285;SDS011;2665;53.112;7.358;2023-06-24T10:39:58;5.23;;;2.47;;
5285;SDS011;2665;53.112;7.358;2023-06-24T10:42:38;5.00;;;2.73;;
5285;SDS011;2665;53.112;7.358;2023-06-24T10:47:41;7.43;;;2.87;;
5285;SDS011;2665;53.112;7.358;2023-06-24T10:50:09;3.30;;;2.50;;
5285;SDS011;2665;53.112;7.358;2023-06-24T10:52:40;4.67;;;2.87;;
5285;SDS011;2665;53.112;7.358;2023-06-24T10:55:07;3.30;;;2.30;;
5285;SDS011;2665;53.112;7.358;2023-06-24T10:57:33;4.13;;;2.60;;
5285;SDS011;2665;53.112;7.358;2023-06-24T10:59:59;4.70;;;2.80;;
5285;SDS011;2665;53.112;7.358;2023-06-24T11:02:26;2.80;;;2.13;;
5285;SDS011;2665;53.112;7.358;2023-06-24T11:04:53;3.83;;;2.70;;
5285;SDS011;2665;53.112;7.358;2023-06-24T11:07:29;3.80;;;2.60;;
5285;SDS011;2665;53.112;7.358;2023-06-24T11:09:58;5.97;;;3.00;;
5285;SDS011;2665;53.112;7.358;2023-06-24T11:12:28;6.93;;;3.03;;
5285;SDS011;2665;53.112;7.358;2023-06-24T11:14:56;4.20;;;2.47;;
5285;SDS011;2665;53.112;7.358;2023-06-24T11:17:25;3.53;;;2.50;;
5285;SDS011;2665;53.112;7.358;2023-06-24T11:19:52;4.53;;;2.90;;
5285;SDS011;2665;53.112;7.358;2023-06-24T11:22:18;4.90;;;2.70;;
5285;SDS011;2665;53.112;7.358;2023-06-24T11:24:44;3.43;;;2.50;;
5285;SDS011;2665;53.112;7.358;2023-06-24T11:27:10;3.70;;;2.97;;
5285;SDS011;2665;53.112;7.358;2023-06-24T11:29:35;3.80;;;2.20;;
5285;SDS011;2665;53.112;7.358;2023-06-24T11:32:01;5.40;;;2.93;;
5285;SDS011;2665;53.112;7.358;2023-06-24T11:34:28;3.80;;;2.43;;
5285;SDS011;2665;53.112;7.358;2023-06-24T11:36:54;4.67;;;3.03;;
5285;SDS011;2665;53.112;7.358;2023-06-24T11:39:20;3.30;;;2.40;;
5285;SDS011;2665;53.112;7.358;2023-06-24T11:41:47;3.40;;;2.57;;
5285;SDS011;2665;53.112;7.358;2023-06-24T11:44:12;3.10;;;2.30;;
5285;SDS011;2665;53.112;7.358;2023-06-24T11:46:38;3.13;;;2.40;;
5285;SDS011;2665;53.112;7.358;2023-06-24T11:51:31;3.20;;;2.43;;
5285;SDS011;2665;53.112;7.358;2023-06-24T11:54:03;3.10;;;2.80;;
5285;SDS011;2665;53.112;7.358;2023-06-24T11:56:37;3.60;;;2.23;;
5285;SDS011;2665;53.112;7.358;2023-06-24T11:59:09;2.90;;;1.90;;
5285;SDS011;2665;53.112;7.358;2023-06-24T12:01:54;3.80;;;2.63;;
5285;SDS011;2665;53.112;7.358;2023-06-24T12:04:21;3.60;;;2.80;;
5285;SDS011;2665;53.112;7.358;2023-06-24T12:06:52;3.27;;;2.40;;
5285;SDS011;2665;53.112;7.358;2023-06-24T12:09:18;3.07;;;2.20;;
5285;SDS011;2665;53.112;7.358;2023-06-24T12:11:43;3.10;;;2.60;;
5285;SDS011;2665;53.112;7.358;2023-06-24T12:14:09;4.50;;;3.20;;
5285;SDS011;2665;53.112;7.358;2023-06-24T12:16:35;3.30;;;2.60;;
5285;SDS011;2665;53.112;7.358;2023-06-24T12:19:01;3.40;;;2.10;;
5285;SDS011;2665;53.112;7.358;2023-06-24T12:21:27;3.60;;;2.70;;
5285;SDS011;2665;53.112;7.358;2023-06-24T12:23:53;4.13;;;2.50;;
5285;SDS011;2665;53.112;7.358;2023-06-24T12:26:18;3.07;;;2.30;;
5285;SDS011;2665;53.112;7.358;2023-06-24T12:28:44;3.10;;;2.03;;
5285;SDS011;2665;53.112;7.358;2023-06-24T12:31:10;4.10;;;2.47;;
5285;SDS011;2665;53.112;7.358;2023-06-24T12:33:36;4.53;;;2.63;;
5285;SDS011;2665;53.112;7.358;2023-06-24T12:36:02;4.00;;;2.20;;
5285;SDS011;2665;53.112;7.358;2023-06-24T12:38:27;4.53;;;2.40;;
5285;SDS011;2665;53.112;7.358;2023-06-24T12:40:53;3.73;;;2.23;;
5285;SDS011;2665;53.112;7.358;2023-06-24T12:43:18;4.30;;;2.40;;
5285;SDS011;2665;53.112;7.358;2023-06-24T12:45:44;5.70;;;2.17;;
5285;SDS011;2665;53.112;7.358;2023-06-24T12:48:10;4.20;;;2.20;;
5285;SDS011;2665;53.112;7.358;2023-06-24T12:50:36;3.90;;;2.70;;
5285;SDS011;2665;53.112;7.358;2023-06-24T12:53:02;3.53;;;2.70;;
5285;SDS011;2665;53.112;7.358;2023-06-24T12:55:28;4.23;;;1.83;;
5285;SDS011;2665;53.112;7.358;2023-06-24T12:57:54;3.37;;;2.23;;
5285;SDS011;2665;53.112;7.358;2023-06-24T13:00:20;3.17;;;2.07;;
5285;SDS011;2665;53.112;7.358;2023-06-24T13:02:46;3.60;;;2.37;;
5285;SDS011;2665;53.112;7.358;2023-06-24T13:05:13;3.53;;;2.30;;
5285;SDS011;2665;53.112;7.358;2023-06-24T13:07:38;2.60;;;2.30;;
5285;SDS011;2665;53.112;7.358;2023-06-24T13:10:04;2.70;;;1.90;;
5285;SDS011;2665;53.112;7.358;2023-06-24T13:12:33;3.30;;;2.10;;
5285;SDS011;2665;53.112;7.358;2023-06-24T13:14:59;3.07;;;2.30;;
5285;SDS011;2665;53.112;7.358;2023-06-24T13:17:25;3.00;;;2.20;;
5285;SDS011;2665;53.112;7.358;2023-06-24T13:19:51;2.80;;;2.20;;
5285;SDS011;2665;53.112;7.358;2023-06-24T13:22:17;2.77;;;2.00;;
5285;SDS011;2665;53.112;7.358;2023-06-24T13:24:43;2.30;;;1.90;;
5285;SDS011;2665;53.112;7.358;2023-06-24T13:27:09;2.80;;;1.80;;
5285;SDS011;2665;53.112;7.358;2023-06-24T13:29:35;2.80;;;2.00;;
5285;SDS011;2665;53.112;7.358;2023-06-24T13:32:00;2.63;;;1.93;;
5285;SDS011;2665;53.112;7.358;2023-06-24T13:34:26;2.70;;;1.87;;
5285;SDS011;2665;53.112;7.358;2023-06-24T13:36:52;2.47;;;1.90;;
5285;SDS011;2665;53.112;7.358;2023-06-24T13:39:17;3.70;;;2.10;;
5285;SDS011;2665;53.112;7.358;2023-06-24T13:41:46;2.60;;;1.97;;
5285;SDS011;2665;53.112;7.358;2023-06-24T13:44:12;2.90;;;2.20;;
5285;SDS011;2665;53.112;7.358;2023-06-24T13:46:38;3.20;;;1.93;;
5285;SDS011;2665;53.112;7.358;2023-06-24T13:49:04;3.00;;;2.23;;
5285;SDS011;2665;53.112;7.358;2023-06-24T13:51:29;2.33;;;1.67;;
5285;SDS011;2665;53.112;7.358;2023-06-24T13:53:55;2.83;;;1.90;;
5285;SDS011;2665;53.112;7.358;2023-06-24T13:56:21;2.67;;;1.97;;
5285;SDS011;2665;53.112;7.358;2023-06-24T13:58:49;3.03;;;2.00;;
5285;SDS011;2665;53.112;7.358;2023-06-24T14:01:15;3.40;;;1.97;;
5285;SDS011;2665;53.112;7.358;2023-06-24T14:03:41;4.73;;;2.10;;
5285;SDS011;2665;53.112;7.358;2023-06-24T14:06:07;3.40;;;1.97;;
5285;SDS011;2665;53.112;7.358;2023-06-24T14:08:33;3.07;;;1.97;;
5285;SDS011;2665;53.112;7.358;2023-06-24T14:10:59;3.27;;;2.17;;
5285;SDS011;2665;53.112;7.358;2023-06-24T14:13:25;2.70;;;1.90;;
5285;SDS011;2665;53.112;7.358;2023-06-24T14:15:52;2.80;;;1.60;;
5285;SDS011;2665;53.112;7.358;2023-06-24T14:18:19;2.67;;;1.80;;
5285;SDS011;2665;53.112;7.358;2023-06-24T14:20:44;2.37;;;1.90;;
5285;SDS011;2665;53.112;7.358;2023-06-24T14:23:10;3.13;;;2.00;;
5285;SDS011;2665;53.112;7.358;2023-06-24T14:25:36;2.90;;;1.87;;
5285;SDS011;2665;53.112;7.358;2023-06-24T14:28:03;5.47;;;1.90;;
5285;SDS011;2665;53.112;7.358;2023-06-24T14:30:29;2.50;;;1.77;;
5285;SDS011;2665;53.112;7.358;2023-06-24T14:32:55;3.87;;;2.30;;
5285;SDS011;2665;53.112;7.358;2023-06-24T14:35:21;7.53;;;2.40;;
5285;SDS011;2665;53.112;7.358;2023-06-24T14:37:46;4.50;;;2.60;;
5285;SDS011;2665;53.112;7.358;2023-06-24T14:40:12;7.60;;;3.43;;
5285;SDS011;2665;53.112;7.358;2023-06-24T14:42:37;6.23;;;4.33;;
5285;SDS011;2665;53.112;7.358;2023-06-24T14:45:03;9.40;;;4.10;;
5285;SDS011;2665;53.112;7.358;2023-06-24T14:47:29;8.27;;;3.70;;
5285;SDS011;2665;53.112;7.358;2023-06-24T14:49:55;4.80;;;4.20;;
5285;SDS011;2665;53.112;7.358;2023-06-24T14:52:20;5.50;;;4.23;;
5285;SDS011;2665;53.112;7.358;2023-06-24T14:54:46;6.33;;;5.13;;
5285;SDS011;2665;53.112;7.358;2023-06-24T14:57:12;7.13;;;5.13;;
5285;SDS011;2665;53.112;7.358;2023-06-24T14:59:38;8.07;;;4.47;;
5285;SDS011;2665;53.112;7.358;2023-06-24T15:02:03;5.80;;;4.80;;
5285;SDS011;2665;53.112;7.358;2023-06-24T15:04:30;8.23;;;4.83;;
5285;SDS011;2665;53.112;7.358;2023-06-24T15:06:55;5.50;;;3.97;;
5285;SDS011;2665;53.112;7.358;2023-06-24T15:09:21;5.50;;;3.97;;
5285;SDS011;2665;53.112;7.358;2023-06-24T15:11:47;7.70;;;4.23;;
5285;SDS011;2665;53.112;7.358;2023-06-24T15:14:13;7.53;;;4.27;;
5285;SDS011;2665;53.112;7.358;2023-06-24T15:16:39;6.07;;;4.23;;
5285;SDS011;2665;53.112;7.358;2023-06-24T15:19:04;5.07;;;3.80;;
5285;SDS011;2665;53.112;7.358;2023-06-24T15:21:30;5.07;;;3.90;;
5285;SDS011;2665;53.112;7.358;2023-06-24T15:23:56;4.93;;;3.77;;
5285;SDS011;2665;53.112;7.358;2023-06-24T15:26:21;6.43;;;4.70;;
5285;SDS011;2665;53.112;7.358;2023-06-24T15:28:47;5.30;;;3.57;;
5285;SDS011;2665;53.112;7.358;2023-06-24T15:31:13;8.07;;;4.03;;
5285;SDS011;2665;53.112;7.358;2023-06-24T15:33:39;4.23;;;3.40;;